createdAt,value
2022-07-26T00:01:21.131Z,100395.41
2022-07-26T00:03:49.254Z,100383.09
2022-07-26T00:06:16.409Z,100379.66
2022-07-26T00:08:47.080Z,100383.22
2022-07-26T00:11:14.116Z,100395.41
2022-07-26T00:13:40.706Z,100396.69
2022-07-26T00:16:07.362Z,100389.81
2022-07-26T00:18:33.935Z,100388.53
2022-07-26T00:21:00.438Z,100395.38
2022-07-26T00:23:27.793Z,100390.19
2022-07-26T00:25:54.437Z,100390.63
2022-07-26T00:28:21.115Z,100395.50
2022-07-26T00:30:47.846Z,100407.72
2022-07-26T00:33:14.385Z,100397.63
2022-07-26T00:35:41.159Z,100394.53
2022-07-26T00:38:07.948Z,100402.25
2022-07-26T00:40:36.037Z,100410.91
2022-07-26T00:43:02.694Z,100407.09
2022-07-26T00:45:29.256Z,100403.91
2022-07-26T00:47:55.906Z,100407.22
2022-07-26T00:50:22.466Z,100408.78
2022-07-26T00:52:50.200Z,100395.16
2022-07-26T00:55:17.994Z,100402.88
2022-07-26T00:57:44.740Z,100401.28
2022-07-26T01:00:14.414Z,100391.81
2022-07-26T01:02:40.977Z,100401.44
2022-07-26T01:08:48.405Z,100402.97
2022-07-26T01:11:14.869Z,100401.91
2022-07-26T01:13:47.514Z,100409.50
2022-07-26T01:16:14.297Z,100420.41
2022-07-26T01:18:41.017Z,100423.50
2022-07-26T01:21:13.240Z,100432.50
2022-07-26T01:23:41.770Z,100446.94
2022-07-26T01:26:08.553Z,100441.38
2022-07-26T01:28:40.351Z,100440.19
2022-07-26T01:31:08.036Z,100428.78
2022-07-26T01:33:35.040Z,100441.97
2022-07-26T01:36:01.806Z,100446.47
2022-07-26T01:38:28.612Z,100451.03
2022-07-26T01:40:55.218Z,100445.13
2022-07-26T01:43:21.778Z,100440.75
2022-07-26T01:45:48.518Z,100440.59
2022-07-26T01:48:15.266Z,100445.91
2022-07-26T01:50:42.288Z,100453.34
2022-07-26T01:53:09.001Z,100456.53
2022-07-26T01:55:36.088Z,100455.53
2022-07-26T01:58:05.129Z,100456.75
2022-07-26T02:00:32.192Z,100457.53
2022-07-26T02:02:58.892Z,100452.16
2022-07-26T02:05:25.556Z,100460.22
2022-07-26T02:07:52.100Z,100463.06
2022-07-26T02:10:18.995Z,100461.78
2022-07-26T02:12:45.517Z,100468.81
2022-07-26T02:15:13.778Z,100460.03
2022-07-26T02:17:40.644Z,100451.59
2022-07-26T02:20:08.373Z,100459.16
2022-07-26T02:22:35.608Z,100464.25
2022-07-26T02:25:05.210Z,100453.69
2022-07-26T02:27:32.857Z,100454.41
2022-07-26T02:29:59.428Z,100447.50
2022-07-26T02:32:26.103Z,100450.47
2022-07-26T02:34:52.603Z,100460.75
2022-07-26T02:37:19.112Z,100461.91
2022-07-26T02:39:45.625Z,100456.91
2022-07-26T02:42:12.160Z,100457.75
2022-07-26T02:44:38.690Z,100453.00
2022-07-26T02:47:05.229Z,100454.78
2022-07-26T02:49:31.837Z,100443.81
2022-07-26T02:51:58.352Z,100446.72
2022-07-26T02:54:24.838Z,100443.00
2022-07-26T02:56:51.311Z,100446.41
2022-07-26T02:59:17.834Z,100440.72
2022-07-26T03:01:44.390Z,100443.75
2022-07-26T03:04:11.315Z,100448.53
2022-07-26T03:06:38.174Z,100450.22
2022-07-26T03:09:04.880Z,100446.97
2022-07-26T03:11:31.470Z,100449.00
2022-07-26T03:13:57.952Z,100451.41
2022-07-26T03:16:29.000Z,100444.91
2022-07-26T03:18:55.955Z,100457.53
2022-07-26T03:21:22.468Z,100451.91
2022-07-26T03:23:48.952Z,100454.25
2022-07-26T03:26:15.612Z,100460.69
2022-07-26T03:28:42.616Z,100449.00
2022-07-26T03:31:09.302Z,100462.13
2022-07-26T03:33:36.193Z,100458.19
2022-07-26T03:36:03.220Z,100463.41
2022-07-26T03:38:30.181Z,100465.69
2022-07-26T03:40:56.707Z,100470.50
2022-07-26T03:43:23.594Z,100455.72
2022-07-26T03:45:50.896Z,100469.88
2022-07-26T03:48:20.725Z,100467.41
2022-07-26T03:50:47.289Z,100469.31
2022-07-26T03:53:14.197Z,100473.91
2022-07-26T03:55:59.344Z,100476.63
2022-07-26T03:58:25.811Z,100483.50
2022-07-26T04:00:52.327Z,100477.47
2022-07-26T04:03:19.385Z,100468.03
2022-07-26T04:05:48.925Z,100484.94
2022-07-26T04:08:16.387Z,100473.91
2022-07-26T04:10:47.995Z,100470.44
2022-07-26T04:13:14.347Z,100471.69
2022-07-26T04:15:40.823Z,100473.28
2022-07-26T04:18:07.347Z,100474.13
2022-07-26T04:20:33.830Z,100480.78
2022-07-26T04:23:00.377Z,100476.00
2022-07-26T04:25:26.971Z,100477.97
2022-07-26T04:28:05.549Z,100480.78
2022-07-26T04:30:32.196Z,100471.59
2022-07-26T04:32:58.792Z,100476.47
2022-07-26T04:35:25.950Z,100466.72
2022-07-26T04:37:52.467Z,100480.56
2022-07-26T04:40:21.643Z,100477.84
2022-07-26T04:42:51.634Z,100472.16
2022-07-26T04:45:18.827Z,100475.22
2022-07-26T04:47:50.264Z,100480.88
2022-07-26T04:50:21.597Z,100477.66
2022-07-26T04:52:49.228Z,100480.22
2022-07-26T04:55:16.841Z,100475.47
2022-07-26T04:57:43.791Z,100490.91
2022-07-26T05:00:22.304Z,100482.56
2022-07-26T05:02:51.627Z,100489.81
2022-07-26T05:05:18.188Z,100492.84
2022-07-26T05:07:46.761Z,100491.03
2022-07-26T05:10:15.007Z,100492.47
2022-07-26T05:12:41.670Z,100489.97
2022-07-26T05:15:13.945Z,100486.78
2022-07-26T05:17:42.757Z,100494.31
2022-07-26T05:20:11.336Z,100497.72
2022-07-26T05:22:38.479Z,100501.72
2022-07-26T05:25:06.611Z,100500.88
2022-07-26T05:27:33.108Z,100509.97
2022-07-26T05:29:59.660Z,100513.75
2022-07-26T05:32:28.050Z,100512.97
2022-07-26T05:34:54.649Z,100516.38
2022-07-26T05:37:21.297Z,100518.03
2022-07-26T05:39:47.771Z,100522.22
2022-07-26T05:42:14.223Z,100517.31
2022-07-26T05:44:42.396Z,100525.56
2022-07-26T05:47:09.731Z,100519.28
2022-07-26T05:49:40.515Z,100538.28
2022-07-26T05:52:08.260Z,100538.88
2022-07-26T05:54:35.433Z,100534.25
2022-07-26T05:57:02.419Z,100524.47
2022-07-26T05:59:29.007Z,100530.25
2022-07-26T06:01:56.647Z,100535.00
2022-07-26T06:04:26.047Z,100527.22
2022-07-26T06:06:54.641Z,100525.41
2022-07-26T06:09:24.928Z,100531.97
2022-07-26T06:11:51.891Z,100528.09
2022-07-26T06:14:19.209Z,100535.75
2022-07-26T06:16:48.921Z,100542.50
2022-07-26T06:19:15.893Z,100539.09
2022-07-26T06:21:42.750Z,100535.97
2022-07-26T06:24:09.633Z,100542.25
2022-07-26T06:26:36.735Z,100542.16
2022-07-26T06:29:03.356Z,100541.22
2022-07-26T06:31:29.884Z,100536.59
2022-07-26T06:33:56.777Z,100534.00
2022-07-26T06:36:26.150Z,100541.44
2022-07-26T06:38:56.524Z,100537.09
2022-07-26T06:41:23.257Z,100536.72
2022-07-26T06:43:49.759Z,100537.25
2022-07-26T06:46:16.994Z,100542.53
2022-07-26T06:48:47.489Z,100540.19
2022-07-26T06:51:19.376Z,100541.06
2022-07-26T06:53:45.838Z,100549.69
2022-07-26T06:56:14.844Z,100544.53
2022-07-26T06:58:42.187Z,100541.19
2022-07-26T07:01:08.686Z,100543.72
2022-07-26T07:03:35.289Z,100540.78
2022-07-26T07:06:01.847Z,100545.00
2022-07-26T07:08:29.027Z,100559.25
2022-07-26T07:10:56.751Z,100555.34
2022-07-26T07:13:23.427Z,100560.78
2022-07-26T07:15:49.994Z,100558.22
2022-07-26T07:18:16.542Z,100569.81
2022-07-26T07:20:43.021Z,100568.72
2022-07-26T07:23:09.517Z,100564.84
2022-07-26T07:25:36.024Z,100570.19
2022-07-26T07:28:02.534Z,100564.63
2022-07-26T07:30:29.176Z,100564.38
2022-07-26T07:32:56.545Z,100572.56
2022-07-26T07:35:23.591Z,100572.69
2022-07-26T07:37:53.823Z,100568.31
2022-07-26T07:40:21.351Z,100562.38
2022-07-26T07:42:47.871Z,100565.44
2022-07-26T07:45:14.937Z,100570.88
2022-07-26T07:47:41.623Z,100571.97
2022-07-26T07:50:08.727Z,100563.72
2022-07-26T07:52:35.298Z,100562.94
2022-07-26T07:55:36.431Z,100565.06
2022-07-26T07:57:48.347Z,100557.81
2022-07-26T08:00:16.776Z,100565.81
2022-07-26T08:02:45.040Z,100562.38
2022-07-26T08:05:15.397Z,100558.44
2022-07-26T08:07:42.463Z,100557.66
2022-07-26T08:10:09.301Z,100557.25
2022-07-26T08:12:36.144Z,100560.06
2022-07-26T08:15:07.259Z,100556.38
2022-07-26T08:17:34.761Z,100558.44
2022-07-26T08:20:05.080Z,100554.91
2022-07-26T08:22:34.543Z,100559.63
2022-07-26T08:25:00.985Z,100548.66
2022-07-26T08:27:27.531Z,100549.84
2022-07-26T08:29:54.120Z,100556.13
2022-07-26T08:32:20.742Z,100546.09
2022-07-26T08:34:47.348Z,100543.16
2022-07-26T08:37:17.595Z,100555.69
2022-07-26T08:39:46.716Z,100565.88
2022-07-26T08:42:15.885Z,100559.69
2022-07-26T08:44:47.214Z,100564.44
2022-07-26T08:47:35.186Z,100574.00
2022-07-26T08:50:06.867Z,100574.72
2022-07-26T08:52:33.562Z,100576.50
2022-07-26T08:55:00.031Z,100571.25
2022-07-26T08:57:26.510Z,100583.28
2022-07-26T09:00:25.570Z,100580.16
2022-07-26T09:02:53.422Z,100575.78
2022-07-26T09:05:25.991Z,100586.59
2022-07-26T09:07:52.467Z,100583.16
2022-07-26T09:10:19.013Z,100578.50
2022-07-26T09:12:45.973Z,100571.88
2022-07-26T09:15:26.805Z,100583.50
2022-07-26T09:17:55.960Z,100581.03
2022-07-26T09:20:28.097Z,100578.50
2022-07-26T09:22:59.790Z,100585.88
2022-07-26T09:25:28.077Z,100585.75
2022-07-26T09:27:55.041Z,100585.88
2022-07-26T09:30:22.625Z,100593.59
2022-07-26T09:33:03.570Z,100597.91
2022-07-26T09:35:50.557Z,100595.94
2022-07-26T09:38:18.500Z,100597.16
2022-07-26T09:40:46.770Z,100593.88
2022-07-26T09:43:21.852Z,100592.00
2022-07-26T09:46:03.081Z,100600.81
2022-07-26T09:48:36.673Z,100599.72
2022-07-26T09:51:14.117Z,100601.91
2022-07-26T09:53:45.891Z,100596.34
2022-07-26T09:56:13.498Z,100595.84
2022-07-26T09:58:40.850Z,100588.59
2022-07-26T10:01:07.997Z,100595.00
2022-07-26T10:03:35.438Z,100584.50
2022-07-26T10:06:03.605Z,100587.78
2022-07-26T10:08:31.378Z,100585.19
2022-07-26T10:11:06.194Z,100585.44
2022-07-26T10:13:32.970Z,100589.69
2022-07-26T10:15:59.602Z,100589.34
2022-07-26T10:18:39.001Z,100590.72
2022-07-26T10:21:18.698Z,100593.50
2022-07-26T10:23:47.337Z,100589.31
2022-07-26T10:26:33.838Z,100589.34
2022-07-26T10:29:20.968Z,100596.50
2022-07-26T10:32:01.133Z,100595.97
2022-07-26T10:34:32.947Z,100595.94
2022-07-26T10:37:05.426Z,100606.41
2022-07-26T10:39:32.174Z,100601.56
2022-07-26T10:42:01.383Z,100601.06
2022-07-26T10:44:41.371Z,100607.38
2022-07-26T10:47:07.828Z,100600.72
2022-07-26T10:49:56.130Z,100597.81
2022-07-26T10:52:26.269Z,100601.47
2022-07-26T10:55:03.443Z,100601.81
2022-07-26T10:57:32.141Z,100605.22
2022-07-26T11:00:00.470Z,100594.72
2022-07-26T11:02:32.617Z,100600.03
2022-07-26T11:05:03.890Z,100617.47
2022-07-26T11:07:31.707Z,100606.88
2022-07-26T11:09:59.275Z,100612.72
2022-07-26T11:12:26.177Z,100605.41
2022-07-26T11:14:54.199Z,100598.53
2022-07-26T11:17:28.824Z,100596.00
2022-07-26T11:19:56.102Z,100605.59
2022-07-26T11:22:32.266Z,100596.13
2022-07-26T11:24:58.782Z,100605.81
2022-07-26T11:27:25.348Z,100594.06
2022-07-26T11:29:51.870Z,100593.09
2022-07-26T11:32:23.112Z,100590.47
2022-07-26T11:35:01.037Z,100594.94
2022-07-26T11:37:27.827Z,100591.69
2022-07-26T11:39:54.297Z,100591.59
2022-07-26T11:42:22.003Z,100594.41
2022-07-26T11:44:49.929Z,100592.09
2022-07-26T11:47:19.595Z,100590.47
2022-07-26T11:49:59.989Z,100589.59
2022-07-26T11:52:31.755Z,100588.88
2022-07-26T11:54:58.673Z,100599.34
2022-07-26T11:57:30.666Z,100593.28
2022-07-26T11:59:58.794Z,100598.38
2022-07-26T12:02:26.171Z,100594.50
2022-07-26T12:05:13.278Z,100600.06
2022-07-26T12:07:52.248Z,100598.28
2022-07-26T12:10:18.747Z,100608.41
2022-07-26T12:12:45.264Z,100636.47
2022-07-26T12:15:13.496Z,100645.56
2022-07-26T12:17:58.466Z,100675.31
2022-07-26T12:20:27.925Z,100682.38
2022-07-26T12:23:04.933Z,100696.75
2022-07-26T12:25:32.088Z,100700.91
2022-07-26T12:27:58.799Z,100716.69
2022-07-26T12:30:25.759Z,100721.63
2022-07-26T12:33:02.075Z,100724.19
2022-07-26T12:35:38.009Z,100733.53
2022-07-26T12:38:04.684Z,100730.97
2022-07-26T12:40:41.048Z,100737.94
2022-07-26T12:43:08.646Z,100739.59
2022-07-26T12:45:36.101Z,100738.94
2022-07-26T12:48:10.092Z,100735.22
2022-07-26T12:50:36.657Z,100739.91
2022-07-26T12:53:08.818Z,100742.50
2022-07-26T12:55:36.078Z,100742.78
2022-07-26T12:58:02.786Z,100743.19
2022-07-26T13:00:30.009Z,100744.38
2022-07-26T13:02:57.730Z,100735.97
2022-07-26T13:05:24.447Z,100739.69
2022-07-26T13:07:55.435Z,100753.09
2022-07-26T13:10:33.209Z,100745.53
2022-07-26T13:13:00.455Z,100756.88
2022-07-26T13:15:36.261Z,100744.66
2022-07-26T13:18:06.746Z,100749.47
2022-07-26T13:20:33.345Z,100749.38
2022-07-26T13:22:59.853Z,100753.47
2022-07-26T13:25:29.078Z,100754.81
2022-07-26T13:28:05.059Z,100756.13
2022-07-26T13:30:31.781Z,100755.44
2022-07-26T13:32:58.309Z,100763.69
2022-07-26T13:35:24.790Z,100758.25
2022-07-26T13:37:51.234Z,100749.31
2022-07-26T13:40:17.741Z,100755.22
2022-07-26T13:42:44.261Z,100750.22
2022-07-26T13:45:11.401Z,100749.00
2022-07-26T13:47:37.932Z,100745.66
2022-07-26T13:50:04.782Z,100745.81
2022-07-26T13:52:33.701Z,100750.44
2022-07-26T13:55:00.162Z,100753.41
2022-07-26T13:57:49.501Z,100757.97
2022-07-26T14:00:13.731Z,100757.16
2022-07-26T14:02:40.343Z,100754.56
2022-07-26T14:05:07.216Z,100752.72
2022-07-26T14:07:33.811Z,100757.25
2022-07-26T14:10:00.307Z,100754.91
2022-07-26T14:12:26.809Z,100756.41
2022-07-26T14:14:53.274Z,100757.91
2022-07-26T14:17:19.770Z,100761.41
2022-07-26T14:19:46.297Z,100765.28
2022-07-26T14:22:13.468Z,100757.06
2022-07-26T14:24:40.042Z,100758.63
2022-07-26T14:27:06.563Z,100754.25
2022-07-26T14:29:33.101Z,100758.28
2022-07-26T14:32:02.390Z,100758.91
2022-07-26T14:34:29.049Z,100758.34
2022-07-26T14:36:55.660Z,100763.84
2022-07-26T14:39:22.146Z,100767.44
2022-07-26T14:41:48.660Z,100765.28
2022-07-26T14:44:15.173Z,100765.56
2022-07-26T14:46:43.814Z,100766.81
2022-07-26T14:49:10.455Z,100762.94
2022-07-26T14:51:37.134Z,100767.69
2022-07-26T14:54:04.670Z,100767.09
2022-07-26T14:56:31.362Z,100774.34
2022-07-26T14:58:57.851Z,100768.41
2022-07-26T15:01:24.447Z,100768.75
2022-07-26T15:03:50.987Z,100770.22
2022-07-26T15:06:17.530Z,100774.94
2022-07-26T15:08:44.025Z,100775.31
2022-07-26T15:11:10.632Z,100771.59
2022-07-26T15:13:37.156Z,100775.41
2022-07-26T15:16:03.941Z,100767.34
2022-07-26T15:18:31.295Z,100770.44
2022-07-26T15:20:57.962Z,100775.31
2022-07-26T15:23:24.996Z,100767.31
2022-07-26T15:25:51.512Z,100764.00
2022-07-26T15:28:18.448Z,100765.94
2022-07-26T15:30:45.124Z,100759.72
2022-07-26T15:33:11.791Z,100767.59
2022-07-26T15:35:40.558Z,100772.72
2022-07-26T15:38:07.509Z,100772.66
2022-07-26T15:40:34.023Z,100760.97
2022-07-26T15:43:00.584Z,100769.19
2022-07-26T15:45:28.083Z,100768.91
2022-07-26T15:48:09.377Z,100770.75
2022-07-26T15:50:44.564Z,100767.84
2022-07-26T15:53:11.081Z,100766.13
2022-07-26T15:55:37.562Z,100769.75
2022-07-26T15:58:05.049Z,100762.97
2022-07-26T16:00:31.681Z,100765.09
2022-07-26T16:02:58.248Z,100776.03
2022-07-26T16:05:24.859Z,100773.44
2022-07-26T16:07:51.323Z,100765.84
2022-07-26T16:10:17.976Z,100764.53
2022-07-26T16:12:44.624Z,100774.56
2022-07-26T16:15:11.960Z,100765.72
2022-07-26T16:17:39.278Z,100759.53
2022-07-26T16:20:07.017Z,100762.59
2022-07-26T16:22:34.396Z,100763.41
2022-07-26T16:25:01.113Z,100762.22
2022-07-26T16:27:27.623Z,100768.25
2022-07-26T16:29:54.278Z,100757.72
2022-07-26T16:32:21.602Z,100772.94
2022-07-26T16:34:48.362Z,100764.72
2022-07-26T16:37:14.942Z,100767.78
2022-07-26T16:39:41.436Z,100763.84
2022-07-26T16:42:07.967Z,100769.38
2022-07-26T16:44:36.111Z,100769.63
2022-07-26T16:47:02.994Z,100774.78
2022-07-26T16:49:29.677Z,100777.78
2022-07-26T16:51:56.856Z,100780.09
2022-07-26T16:54:23.440Z,100783.47
2022-07-26T16:56:50.043Z,100779.56
2022-07-26T16:59:17.307Z,100779.00
2022-07-26T17:01:44.426Z,100774.81
2022-07-26T17:04:10.997Z,100776.13
2022-07-26T17:06:37.539Z,100773.56
2022-07-26T17:09:04.275Z,100771.66
2022-07-26T17:11:30.867Z,100782.31
2022-07-26T17:13:57.442Z,100774.13
2022-07-26T17:16:25.096Z,100778.53
2022-07-26T17:18:53.297Z,100771.25
2022-07-26T17:21:19.965Z,100779.84
2022-07-26T17:23:46.586Z,100779.41
2022-07-26T17:26:13.075Z,100780.19
2022-07-26T17:28:39.575Z,100785.19
2022-07-26T17:31:06.210Z,100776.53
2022-07-26T17:33:32.869Z,100781.19
2022-07-26T17:36:03.249Z,100782.19
2022-07-26T17:38:31.097Z,100785.72
2022-07-26T17:40:57.599Z,100786.63
2022-07-26T17:43:25.206Z,100794.06
2022-07-26T17:46:03.668Z,100801.69
2022-07-26T17:48:30.346Z,100792.28
2022-07-26T17:50:56.889Z,100796.22
2022-07-26T17:53:31.719Z,100793.13
2022-07-26T17:56:01.832Z,100797.34
2022-07-26T17:58:28.413Z,100795.28
2022-07-26T18:00:54.903Z,100799.28
2022-07-26T18:03:22.264Z,100798.59
2022-07-26T18:05:50.150Z,100801.44
2022-07-26T18:08:16.877Z,100800.03
2022-07-26T18:10:47.599Z,100802.38
2022-07-26T18:13:17.695Z,100801.69
2022-07-26T18:15:44.391Z,100805.25
2022-07-26T18:18:11.000Z,100802.38
2022-07-26T18:20:37.524Z,100811.75
2022-07-26T18:23:04.121Z,100817.59
2022-07-26T18:25:30.693Z,100813.03
2022-07-26T18:27:57.248Z,100813.66
2022-07-26T18:30:23.962Z,100817.88
2022-07-26T18:32:50.582Z,100807.63
2022-07-26T18:35:17.090Z,100817.31
2022-07-26T18:37:43.589Z,100815.63
2022-07-26T18:40:10.353Z,100822.56
2022-07-26T18:42:37.855Z,100819.06
2022-07-26T18:45:04.812Z,100822.47
2022-07-26T18:47:31.393Z,100832.34
2022-07-26T18:49:57.926Z,100833.78
2022-07-26T18:52:31.667Z,100833.78
2022-07-26T18:54:59.468Z,100843.72
2022-07-26T18:57:25.932Z,100838.91
2022-07-26T18:59:52.460Z,100846.09
2022-07-26T19:02:19.092Z,100843.16
2022-07-26T19:04:45.558Z,100851.38
2022-07-26T19:07:12.067Z,100863.13
2022-07-26T19:09:38.550Z,100855.59
2022-07-26T19:12:05.159Z,100857.13
2022-07-26T19:14:31.700Z,100851.44
2022-07-26T19:16:58.273Z,100849.63
2022-07-26T19:19:24.732Z,100851.09
2022-07-26T19:21:51.203Z,100858.63
2022-07-26T19:24:17.737Z,100853.84
2022-07-26T19:26:44.269Z,100850.50
2022-07-26T19:29:11.148Z,100861.56
2022-07-26T19:31:40.246Z,100852.19
2022-07-26T19:34:06.882Z,100861.16
2022-07-26T19:36:33.490Z,100867.88
2022-07-26T19:39:01.219Z,100865.59
2022-07-26T19:41:27.882Z,100880.44
2022-07-26T19:43:54.481Z,100876.28
2022-07-26T19:46:21.098Z,100875.69
2022-07-26T19:48:47.692Z,100882.38
2022-07-26T19:51:14.267Z,100879.94
2022-07-26T19:53:40.787Z,100876.38
2022-07-26T19:56:07.865Z,100884.94
2022-07-26T19:58:34.426Z,100889.56
2022-07-26T20:01:01.095Z,100889.97
2022-07-26T20:03:27.690Z,100897.53
2022-07-26T20:05:55.633Z,100901.50
2022-07-26T20:08:22.447Z,100899.84
2022-07-26T20:10:48.984Z,100902.78
2022-07-26T20:13:15.514Z,100906.94
2022-07-26T20:15:42.729Z,100906.34
2022-07-26T20:18:10.379Z,100911.38
2022-07-26T20:20:36.997Z,100899.00
2022-07-26T20:23:05.957Z,100910.09
2022-07-26T20:25:32.725Z,100907.56
2022-07-26T20:27:59.596Z,100911.75
2022-07-26T20:30:26.293Z,100912.59
2022-07-26T20:32:52.862Z,100916.56
2022-07-26T20:35:19.436Z,100920.13
2022-07-26T20:37:45.939Z,100924.53
2022-07-26T20:40:13.390Z,100927.66
2022-07-26T20:42:44.386Z,100928.91
2022-07-26T20:45:12.894Z,100923.69
2022-07-26T20:47:42.881Z,100929.34
2022-07-26T20:50:10.637Z,100930.38
2022-07-26T20:52:37.388Z,100933.72
2022-07-26T20:55:04.487Z,100934.13
2022-07-26T20:57:31.047Z,100928.91
2022-07-26T20:59:57.544Z,100929.50
2022-07-26T21:02:24.110Z,100935.34
2022-07-26T21:04:50.702Z,100935.16
2022-07-26T21:07:17.207Z,100938.94
2022-07-26T21:09:43.701Z,100947.69
2022-07-26T21:12:10.388Z,100940.59
2022-07-26T21:14:36.900Z,100948.34
2022-07-26T21:17:07.898Z,100944.78
2022-07-26T21:19:37.624Z,100944.13
2022-07-26T21:22:04.167Z,100943.09
2022-07-26T21:24:30.749Z,100951.44
2022-07-26T21:26:57.312Z,100952.25
2022-07-26T21:29:23.895Z,100964.78
2022-07-26T21:31:50.367Z,100965.63
2022-07-26T21:34:16.976Z,100976.50
2022-07-26T21:36:43.689Z,100973.97
2022-07-26T21:39:10.766Z,100974.38
2022-07-26T21:41:38.099Z,100975.66
2022-07-26T21:44:05.097Z,100983.81
2022-07-26T21:46:31.768Z,100986.94
2022-07-26T21:48:58.441Z,100989.44
2022-07-26T21:51:24.941Z,100991.13
2022-07-26T21:53:51.457Z,100987.53
2022-07-26T21:56:18.108Z,100986.94
2022-07-26T21:58:44.566Z,100996.34
2022-07-26T22:01:13.541Z,101001.16
2022-07-26T22:03:41.801Z,100997.81
2022-07-26T22:06:09.603Z,101008.84
2022-07-26T22:08:36.532Z,101001.53
2022-07-26T22:11:03.873Z,101014.84
2022-07-26T22:13:30.966Z,101014.63
2022-07-26T22:15:57.640Z,101011.50
2022-07-26T22:18:24.233Z,101011.50
2022-07-26T22:20:50.798Z,101020.91
2022-07-26T22:23:18.818Z,101026.34
2022-07-26T22:25:46.047Z,101028.41
2022-07-26T22:28:18.348Z,101020.47
2022-07-26T22:30:45.867Z,101018.56
2022-07-26T22:33:12.425Z,101025.25
2022-07-26T22:35:39.064Z,101025.84
2022-07-26T22:38:08.333Z,101023.56
2022-07-26T22:40:35.753Z,101022.69
2022-07-26T22:43:02.365Z,101020.19
2022-07-26T22:45:30.231Z,101027.69
2022-07-26T22:47:57.486Z,101025.59
2022-07-26T22:50:25.060Z,101037.09
2022-07-26T22:52:52.242Z,101036.22
2022-07-26T22:55:19.066Z,101042.88
2022-07-26T22:57:45.636Z,101053.09
2022-07-26T23:00:14.111Z,101045.53
2022-07-26T23:02:41.008Z,101049.09
2022-07-26T23:05:08.612Z,101040.38
2022-07-26T23:07:35.446Z,101050.56
2022-07-26T23:10:02.904Z,101053.94
2022-07-26T23:12:29.436Z,101058.09
2022-07-26T23:14:55.925Z,101062.66
2022-07-26T23:17:22.470Z,101055.56
2022-07-26T23:19:48.962Z,101058.09
2022-07-26T23:22:15.506Z,101058.50
2022-07-26T23:24:43.528Z,101054.34
2022-07-26T23:27:10.482Z,101056.84
2022-07-26T23:29:37.201Z,101054.72
2022-07-26T23:32:03.917Z,101059.50
2022-07-26T23:34:30.547Z,101055.09
2022-07-26T23:36:57.003Z,101058.00
2022-07-26T23:39:23.502Z,101051.09
2022-07-26T23:41:49.966Z,101048.81
2022-07-26T23:44:17.246Z,101049.66
2022-07-26T23:46:43.783Z,101041.63
2022-07-26T23:49:10.886Z,101057.69
2022-07-26T23:51:38.886Z,101052.22
2022-07-26T23:54:05.827Z,101043.06
2022-07-26T23:56:32.332Z,101052.22
2022-07-26T23:58:58.785Z,101049.72
